createdAt,value
2022-11-27T00:01:23.349Z,91.98
2022-11-27T00:03:50.282Z,92.69
2022-11-27T00:06:19.646Z,92.81
2022-11-27T00:08:47.004Z,92.62
2022-11-27T00:11:16.649Z,92.90
2022-11-27T00:13:43.224Z,92.66
2022-11-27T00:16:10.382Z,92.97
2022-11-27T00:18:37.113Z,92.41
2022-11-27T00:21:19.031Z,92.49
2022-11-27T00:23:45.702Z,92.79
2022-11-27T00:26:12.220Z,92.21
2022-11-27T00:28:38.708Z,91.74
2022-11-27T00:31:12.685Z,92.13
2022-11-27T00:33:39.156Z,91.98
2022-11-27T00:36:07.729Z,91.55
2022-11-27T00:38:38.759Z,91.15
2022-11-27T00:41:06.755Z,91.40
2022-11-27T00:43:43.521Z,91.07
2022-11-27T00:46:14.944Z,90.71
2022-11-27T00:48:42.703Z,90.86
2022-11-27T00:51:12.499Z,90.80
2022-11-27T00:53:39.632Z,90.94
2022-11-27T00:56:06.283Z,91.15
2022-11-27T00:58:32.748Z,91.24
2022-11-27T01:01:02.132Z,90.93
2022-11-27T01:03:29.725Z,91.06
2022-11-27T01:05:56.444Z,91.35
2022-11-27T01:08:23.261Z,90.96
2022-11-27T01:10:55.264Z,91.30
2022-11-27T01:13:30.385Z,91.19
2022-11-27T01:16:04.246Z,90.96
2022-11-27T01:18:31.246Z,90.82
2022-11-27T01:20:58.091Z,90.62
2022-11-27T01:23:24.599Z,90.64
2022-11-27T01:25:53.703Z,90.66
2022-11-27T01:28:22.183Z,90.85
2022-11-27T01:30:49.371Z,91.25
2022-11-27T01:33:16.447Z,91.22
2022-11-27T01:35:42.916Z,91.04
2022-11-27T01:38:09.419Z,91.25
2022-11-27T01:40:35.856Z,91.21
2022-11-27T01:43:02.338Z,91.10
2022-11-27T01:45:28.893Z,91.19
2022-11-27T01:47:59.292Z,91.14
2022-11-27T01:50:30.074Z,91.23
2022-11-27T01:53:02.668Z,91.08
2022-11-27T01:55:35.637Z,91.09
2022-11-27T01:58:08.223Z,91.66
2022-11-27T02:00:34.959Z,91.26
2022-11-27T02:03:01.576Z,91.05
2022-11-27T02:05:29.238Z,90.92
2022-11-27T02:07:59.018Z,90.79
2022-11-27T02:10:38.156Z,91.26
2022-11-27T02:13:11.502Z,90.89
2022-11-27T02:15:46.819Z,91.18
2022-11-27T02:18:33.133Z,90.72
2022-11-27T02:21:10.807Z,90.41
2022-11-27T02:23:56.683Z,90.80
2022-11-27T02:26:41.892Z,90.41
2022-11-27T02:29:13.779Z,90.45
2022-11-27T02:31:51.706Z,90.49
2022-11-27T02:34:43.312Z,90.25
2022-11-27T02:37:22.507Z,90.00
2022-11-27T02:40:08.090Z,89.85
2022-11-27T02:42:41.217Z,89.97
2022-11-27T02:45:12.532Z,90.12
2022-11-27T02:47:40.854Z,90.17
2022-11-27T02:50:12.035Z,90.54
2022-11-27T02:52:39.986Z,90.42
2022-11-27T02:55:11.214Z,90.95
2022-11-27T02:57:40.162Z,90.75
2022-11-27T03:00:07.856Z,90.67
2022-11-27T03:02:39.625Z,90.32
2022-11-27T03:05:09.227Z,90.48
2022-11-27T03:07:41.793Z,90.21
2022-11-27T03:10:24.319Z,90.29
2022-11-27T03:12:51.964Z,90.32
2022-11-27T03:15:20.940Z,90.65
2022-11-27T03:18:01.044Z,91.47
2022-11-27T03:20:32.764Z,91.29
2022-11-27T03:22:59.204Z,91.08
2022-11-27T03:25:25.634Z,91.47
2022-11-27T03:27:58.177Z,91.59
2022-11-27T03:30:24.814Z,91.66
2022-11-27T03:32:51.371Z,91.75
2022-11-27T03:35:21.699Z,91.44
2022-11-27T03:37:48.653Z,91.52
2022-11-27T03:40:16.273Z,91.74
2022-11-27T03:43:07.274Z,91.20
2022-11-27T03:45:55.299Z,91.03
2022-11-27T03:48:50.135Z,91.12
2022-11-27T03:51:41.611Z,90.74
2022-11-27T03:54:21.789Z,91.12
2022-11-27T03:57:20.490Z,91.05
2022-11-27T03:59:51.468Z,91.06
2022-11-27T04:02:31.698Z,90.92
2022-11-27T04:04:59.064Z,91.21
2022-11-27T04:07:25.532Z,90.97
2022-11-27T04:09:51.948Z,91.59
2022-11-27T04:12:18.390Z,91.32
2022-11-27T04:14:44.792Z,91.26
2022-11-27T04:17:11.267Z,90.79
2022-11-27T04:19:37.652Z,90.53
2022-11-27T04:22:04.113Z,90.90
2022-11-27T04:24:30.519Z,90.72
2022-11-27T04:26:56.897Z,91.18
2022-11-27T04:29:23.319Z,91.08
2022-11-27T04:31:49.830Z,91.20
2022-11-27T04:34:16.248Z,91.23
2022-11-27T04:36:42.793Z,91.15
2022-11-27T04:39:09.277Z,91.48
2022-11-27T04:41:35.686Z,91.16
2022-11-27T04:44:02.125Z,91.18
2022-11-27T04:46:28.568Z,90.97
2022-11-27T04:48:54.975Z,90.50
2022-11-27T04:51:21.394Z,90.66
2022-11-27T04:53:47.786Z,90.44
2022-11-27T04:56:14.555Z,90.78
2022-11-27T04:58:41.074Z,90.20
2022-11-27T05:01:09.280Z,89.77
2022-11-27T05:03:36.012Z,89.81
2022-11-27T05:06:03.208Z,89.44
2022-11-27T05:08:31.595Z,89.31
2022-11-27T05:11:00.304Z,89.08
2022-11-27T05:13:26.890Z,88.52
2022-11-27T05:15:53.319Z,89.01
2022-11-27T05:18:19.769Z,89.04
2022-11-27T05:20:46.196Z,88.71
2022-11-27T05:23:12.590Z,88.70
2022-11-27T05:25:39.380Z,88.59
2022-11-27T05:28:05.795Z,87.95
2022-11-27T05:30:32.287Z,87.39
2022-11-27T05:32:58.691Z,87.83
2022-11-27T05:35:25.100Z,87.83
2022-11-27T05:37:51.472Z,87.19
2022-11-27T05:40:17.912Z,87.21
2022-11-27T05:42:44.322Z,87.36
2022-11-27T05:45:10.901Z,87.69
2022-11-27T05:47:37.315Z,87.45
2022-11-27T05:50:03.972Z,87.55
2022-11-27T05:52:30.423Z,87.97
2022-11-27T05:54:56.861Z,87.42
2022-11-27T05:57:23.443Z,87.11
2022-11-27T05:59:49.881Z,87.72
2022-11-27T06:02:21.589Z,87.43
2022-11-27T06:04:50.499Z,87.90
2022-11-27T06:07:17.173Z,87.26
2022-11-27T06:09:43.863Z,87.77
2022-11-27T06:12:10.755Z,87.53
2022-11-27T06:14:37.144Z,87.35
2022-11-27T06:17:03.759Z,87.63
2022-11-27T06:19:30.562Z,86.77
2022-11-27T06:21:56.995Z,86.20
2022-11-27T06:24:23.385Z,86.25
2022-11-27T06:26:49.809Z,86.63
2022-11-27T06:29:16.209Z,86.99
2022-11-27T06:31:42.638Z,85.83
2022-11-27T06:34:11.533Z,86.06
2022-11-27T06:36:40.664Z,86.18
2022-11-27T06:39:10.080Z,86.29
2022-11-27T06:41:36.543Z,87.72
2022-11-27T06:44:03.429Z,87.80
2022-11-27T06:46:30.281Z,87.32
2022-11-27T06:48:57.732Z,88.46
2022-11-27T06:51:26.851Z,88.27
2022-11-27T06:53:53.805Z,89.21
2022-11-27T06:56:24.000Z,89.58
2022-11-27T06:58:52.306Z,88.78
2022-11-27T07:01:19.166Z,89.25
2022-11-27T07:03:45.661Z,90.09
2022-11-27T07:06:18.076Z,90.54
2022-11-27T07:08:44.485Z,90.03
2022-11-27T07:11:18.342Z,90.48
2022-11-27T07:13:49.755Z,90.07
2022-11-27T07:16:17.245Z,91.09
2022-11-27T07:18:46.142Z,90.83
2022-11-27T07:21:12.744Z,90.26
2022-11-27T07:23:39.451Z,90.93
2022-11-27T07:26:07.675Z,90.34
2022-11-27T07:28:34.584Z,89.78
2022-11-27T07:31:01.528Z,90.28
2022-11-27T07:33:28.067Z,90.07
2022-11-27T07:36:03.253Z,89.91
2022-11-27T07:38:29.695Z,90.20
2022-11-27T07:40:59.438Z,91.00
2022-11-27T07:43:25.843Z,90.23
2022-11-27T07:45:52.246Z,90.56
2022-11-27T07:48:18.917Z,90.21
2022-11-27T07:50:45.331Z,90.90
2022-11-27T07:53:11.733Z,91.13
2022-11-27T07:55:39.628Z,91.49
2022-11-27T07:58:07.757Z,90.68
2022-11-27T08:00:35.548Z,90.97
2022-11-27T08:03:02.462Z,91.14
2022-11-27T08:05:29.337Z,90.89
2022-11-27T08:07:56.071Z,91.09
2022-11-27T08:10:22.582Z,90.49
2022-11-27T08:12:49.065Z,91.02
2022-11-27T08:15:15.453Z,91.10
2022-11-27T08:17:42.047Z,90.52
2022-11-27T08:20:08.817Z,90.93
2022-11-27T08:22:35.398Z,89.94
2022-11-27T08:25:01.796Z,90.06
2022-11-27T08:27:28.259Z,89.98
2022-11-27T08:29:54.631Z,89.73
2022-11-27T08:32:21.093Z,90.28
2022-11-27T08:34:47.482Z,90.35
2022-11-27T08:37:13.931Z,90.90
2022-11-27T08:39:40.412Z,90.29
2022-11-27T08:42:06.851Z,90.87
2022-11-27T08:44:33.268Z,91.26
2022-11-27T08:46:59.742Z,90.74
2022-11-27T08:49:26.180Z,91.25
2022-11-27T08:51:52.715Z,90.93
2022-11-27T08:54:19.134Z,91.18
2022-11-27T08:56:45.532Z,91.64
2022-11-27T08:59:11.967Z,91.23
2022-11-27T09:01:38.507Z,91.33
2022-11-27T09:04:05.128Z,90.87
2022-11-27T09:06:36.268Z,91.08
2022-11-27T09:09:05.607Z,91.04
2022-11-27T09:11:33.084Z,90.98
2022-11-27T09:14:01.023Z,91.30
2022-11-27T09:16:29.081Z,90.92
2022-11-27T09:18:56.023Z,91.11
2022-11-27T09:21:27.102Z,91.36
2022-11-27T09:23:55.019Z,91.47
2022-11-27T09:26:23.760Z,91.07
2022-11-27T09:28:50.340Z,91.18
2022-11-27T09:31:16.800Z,91.60
2022-11-27T09:33:44.214Z,91.39
2022-11-27T09:36:16.191Z,91.39
2022-11-27T09:38:42.739Z,91.05
2022-11-27T09:41:48.905Z,91.78
2022-11-27T09:44:45.212Z,91.18
2022-11-27T09:47:21.340Z,90.98
2022-11-27T09:49:58.871Z,91.64
2022-11-27T09:52:44.181Z,90.93
2022-11-27T09:55:21.210Z,90.82
2022-11-27T09:58:00.691Z,90.85
2022-11-27T10:00:27.362Z,90.91
2022-11-27T10:02:54.314Z,90.83
2022-11-27T10:05:33.108Z,90.22
2022-11-27T10:08:27.209Z,90.23
2022-11-27T10:11:12.863Z,90.61
2022-11-27T10:13:54.792Z,90.33
2022-11-27T10:16:42.855Z,90.52
2022-11-27T10:19:39.486Z,90.48
2022-11-27T10:22:21.170Z,90.54
2022-11-27T10:25:16.777Z,90.66
2022-11-27T10:28:06.642Z,90.69
2022-11-27T10:30:39.420Z,90.47
2022-11-27T10:33:17.759Z,90.38
2022-11-27T10:35:47.782Z,90.60
2022-11-27T10:38:36.137Z,90.68
2022-11-27T10:41:23.531Z,90.52
2022-11-27T10:44:01.806Z,90.71
2022-11-27T10:46:32.137Z,90.47
2022-11-27T10:48:58.548Z,90.94
2022-11-27T10:51:31.195Z,90.52
2022-11-27T10:54:00.757Z,90.94
2022-11-27T10:56:58.851Z,90.56
2022-11-27T10:59:33.175Z,90.79
2022-11-27T11:02:03.233Z,90.70
2022-11-27T11:04:37.978Z,90.46
2022-11-27T11:07:29.281Z,90.35
2022-11-27T11:09:56.374Z,90.20
2022-11-27T11:12:23.917Z,90.00
2022-11-27T11:14:58.986Z,90.35
2022-11-27T11:17:28.030Z,89.83
2022-11-27T11:19:54.809Z,89.65
2022-11-27T11:22:21.604Z,89.88
2022-11-27T11:24:50.979Z,89.39
2022-11-27T11:27:23.081Z,88.90
2022-11-27T11:29:53.306Z,88.85
2022-11-27T11:32:19.687Z,89.18
2022-11-27T11:34:59.232Z,89.36
2022-11-27T11:37:30.357Z,88.63
2022-11-27T11:40:00.891Z,88.61
2022-11-27T11:42:32.419Z,88.15
2022-11-27T11:45:06.626Z,88.50
2022-11-27T11:47:33.195Z,88.32
2022-11-27T11:49:59.619Z,88.06
2022-11-27T11:52:35.185Z,88.35
2022-11-27T11:55:13.842Z,88.86
2022-11-27T11:58:03.825Z,89.13
2022-11-27T12:00:58.401Z,89.19
2022-11-27T12:03:38.917Z,89.36
2022-11-27T12:06:31.290Z,89.78
2022-11-27T12:09:10.249Z,90.14
2022-11-27T12:11:50.488Z,90.05
2022-11-27T12:14:38.845Z,90.12
2022-11-27T12:17:20.492Z,89.95
2022-11-27T12:20:25.956Z,90.06
2022-11-27T12:23:16.271Z,89.89
2022-11-27T12:26:14.231Z,90.04
2022-11-27T12:29:08.328Z,89.38
2022-11-27T12:31:59.207Z,89.22
2022-11-27T12:34:28.533Z,89.65
2022-11-27T12:37:13.893Z,89.28
2022-11-27T12:39:56.928Z,89.31
2022-11-27T12:42:32.134Z,88.79
2022-11-27T12:45:12.506Z,88.92
2022-11-27T12:47:43.127Z,88.98
2022-11-27T12:50:20.456Z,89.14
2022-11-27T12:52:59.534Z,88.66
2022-11-27T12:55:30.276Z,88.60
2022-11-27T12:58:03.407Z,89.35
2022-11-27T13:00:31.953Z,89.48
2022-11-27T13:03:15.943Z,87.96
2022-11-27T13:05:49.817Z,87.94
2022-11-27T13:08:24.097Z,87.13
2022-11-27T13:11:01.429Z,88.03
2022-11-27T13:13:51.896Z,87.66
2022-11-27T13:16:46.691Z,88.32
2022-11-27T13:19:28.802Z,87.56
2022-11-27T13:21:57.688Z,88.26
2022-11-27T13:24:26.553Z,88.60
2022-11-27T13:27:09.863Z,87.65
2022-11-27T13:29:47.739Z,87.71
2022-11-27T13:32:27.445Z,87.66
2022-11-27T13:34:57.614Z,87.86
2022-11-27T13:37:33.403Z,88.40
2022-11-27T13:40:16.529Z,87.92
2022-11-27T13:42:45.630Z,88.44
2022-11-27T13:45:21.866Z,88.41
2022-11-27T13:47:50.512Z,88.77
2022-11-27T13:50:21.606Z,88.99
2022-11-27T13:52:57.206Z,88.64
2022-11-27T13:55:33.043Z,88.80
2022-11-27T13:58:01.262Z,89.03
2022-11-27T14:00:45.862Z,89.56
2022-11-27T14:03:28.132Z,89.49
2022-11-27T14:05:56.034Z,89.87
2022-11-27T14:08:27.135Z,89.99
2022-11-27T14:11:08.687Z,90.13
2022-11-27T14:13:39.350Z,90.14
2022-11-27T14:16:23.993Z,90.79
2022-11-27T14:18:53.358Z,91.13
2022-11-27T14:21:38.913Z,91.14
2022-11-27T14:24:27.625Z,91.20
2022-11-27T14:26:54.964Z,91.69
2022-11-27T14:29:23.155Z,91.44
2022-11-27T14:31:58.207Z,91.48
2022-11-27T14:34:32.009Z,91.43
2022-11-27T14:36:59.716Z,91.08
2022-11-27T14:39:30.893Z,91.56
2022-11-27T14:42:02.592Z,91.82
2022-11-27T14:44:29.691Z,92.22
2022-11-27T14:46:58.260Z,92.12
2022-11-27T14:49:26.911Z,92.21
2022-11-27T14:51:54.514Z,92.57
2022-11-27T14:54:31.397Z,92.92
2022-11-27T14:56:58.448Z,93.14
2022-11-27T14:59:25.804Z,92.83
2022-11-27T15:02:18.273Z,93.37
2022-11-27T15:04:46.622Z,93.67
2022-11-27T15:07:21.305Z,93.61
2022-11-27T15:09:51.143Z,93.79
2022-11-27T15:12:19.194Z,93.97
2022-11-27T15:14:54.670Z,93.33
2022-11-27T15:17:27.002Z,93.61
2022-11-27T15:19:54.693Z,93.77
2022-11-27T15:22:21.759Z,93.86
2022-11-27T15:25:01.944Z,94.13
2022-11-27T15:27:31.875Z,94.03
2022-11-27T15:30:12.102Z,94.25
2022-11-27T15:32:55.334Z,94.01
2022-11-27T15:35:29.991Z,94.18
2022-11-27T15:37:58.074Z,94.55
2022-11-27T15:40:33.559Z,94.38
2022-11-27T15:43:00.011Z,94.02
2022-11-27T15:45:32.406Z,94.13
2022-11-27T15:48:00.885Z,94.61
2022-11-27T15:50:29.453Z,95.07
2022-11-27T15:52:56.284Z,94.63
2022-11-27T15:55:23.426Z,94.72
2022-11-27T15:57:49.855Z,94.62
2022-11-27T16:00:16.801Z,94.92
2022-11-27T16:02:43.308Z,94.98
2022-11-27T16:05:09.972Z,94.82
2022-11-27T16:07:36.467Z,95.34
2022-11-27T16:10:03.430Z,95.57
2022-11-27T16:12:29.904Z,95.80
2022-11-27T16:14:56.291Z,95.65
2022-11-27T16:17:22.669Z,95.95
2022-11-27T16:19:49.332Z,95.69
2022-11-27T16:22:15.776Z,95.25
2022-11-27T16:24:42.587Z,95.92
2022-11-27T16:27:09.632Z,95.85
2022-11-27T16:29:36.044Z,96.26
2022-11-27T16:32:02.589Z,97.30
2022-11-27T16:34:29.240Z,96.93
2022-11-27T16:36:55.689Z,96.66
2022-11-27T16:39:23.321Z,96.92
2022-11-27T16:41:49.749Z,97.23
2022-11-27T16:44:17.985Z,97.38
2022-11-27T16:46:44.566Z,96.77
2022-11-27T16:49:12.021Z,96.73
2022-11-27T16:51:39.929Z,96.71
2022-11-27T16:54:11.844Z,96.75
2022-11-27T16:56:40.600Z,97.16
2022-11-27T16:59:09.654Z,97.14
2022-11-27T17:01:37.144Z,97.13
2022-11-27T17:04:06.982Z,97.01
2022-11-27T17:06:33.786Z,96.80
2022-11-27T17:09:02.251Z,97.03
2022-11-27T17:11:33.656Z,96.41
2022-11-27T17:14:03.797Z,97.31
2022-11-27T17:16:31.081Z,96.96
2022-11-27T17:18:58.445Z,96.99
2022-11-27T17:21:31.827Z,96.64
2022-11-27T17:24:04.458Z,97.69
2022-11-27T17:26:38.545Z,97.74
2022-11-27T17:29:05.021Z,97.81
2022-11-27T17:31:33.547Z,97.88
2022-11-27T17:34:00.448Z,97.68
2022-11-27T17:36:36.468Z,97.81
2022-11-27T17:39:05.413Z,97.31
2022-11-27T17:41:32.802Z,97.67
2022-11-27T17:43:59.350Z,97.27
2022-11-27T17:46:27.736Z,97.93
2022-11-27T17:48:57.848Z,97.62
2022-11-27T17:51:24.618Z,97.23
2022-11-27T17:53:51.340Z,97.54
2022-11-27T17:56:20.444Z,97.05
2022-11-27T17:58:47.358Z,97.24
2022-11-27T18:01:19.473Z,97.75
2022-11-27T18:03:46.902Z,97.31
2022-11-27T18:06:17.040Z,97.72
2022-11-27T18:08:44.791Z,97.54
2022-11-27T18:11:17.775Z,97.09
2022-11-27T18:13:44.942Z,97.89
2022-11-27T18:16:15.574Z,98.00
2022-11-27T18:18:43.510Z,97.46
2022-11-27T18:21:18.101Z,97.98
2022-11-27T18:24:20.887Z,97.89
2022-11-27T18:27:00.423Z,98.32
2022-11-27T18:29:20.815Z,98.38
2022-11-27T18:31:47.650Z,98.49
2022-11-27T18:34:14.284Z,98.18
2022-11-27T18:36:40.669Z,98.48
2022-11-27T18:39:07.091Z,98.66
2022-11-27T18:41:34.632Z,98.70
2022-11-27T18:44:01.962Z,98.28
2022-11-27T18:46:29.617Z,98.51
2022-11-27T18:48:56.130Z,99.06
2022-11-27T18:51:24.572Z,98.54
2022-11-27T18:53:52.166Z,98.60
2022-11-27T18:56:21.779Z,98.90
2022-11-27T18:58:49.091Z,98.40
2022-11-27T19:01:25.438Z,99.21
2022-11-27T19:03:52.431Z,99.50
2022-11-27T19:06:20.625Z,99.07
2022-11-27T19:08:48.243Z,99.27
2022-11-27T19:11:17.491Z,99.22
2022-11-27T19:13:45.385Z,99.74
2022-11-27T19:16:22.646Z,99.28
2022-11-27T19:18:49.553Z,99.86
2022-11-27T19:21:21.300Z,99.58
2022-11-27T19:23:50.549Z,99.50
2022-11-27T19:26:20.169Z,99.59
2022-11-27T19:28:52.645Z,99.28
2022-11-27T19:31:20.084Z,99.12
2022-11-27T19:33:52.367Z,99.73
2022-11-27T19:36:19.500Z,99.14
2022-11-27T19:38:46.178Z,99.26
2022-11-27T19:41:17.763Z,99.08
2022-11-27T19:43:45.184Z,99.46
2022-11-27T19:46:25.563Z,98.85
2022-11-27T19:48:56.665Z,99.43
2022-11-27T19:51:24.224Z,99.67
2022-11-27T19:53:50.882Z,99.35
2022-11-27T19:56:17.725Z,99.45
2022-11-27T19:58:44.395Z,99.84
2022-11-27T20:01:17.286Z,99.65
2022-11-27T20:03:44.727Z,99.81
2022-11-27T20:06:18.580Z,99.58
2022-11-27T20:08:46.921Z,100.00
2022-11-27T20:11:16.144Z,99.84
2022-11-27T20:13:42.833Z,99.67
2022-11-27T20:16:11.621Z,99.56
2022-11-27T20:18:38.247Z,99.83
2022-11-27T20:21:11.373Z,100.00
2022-11-27T20:23:38.698Z,99.85
2022-11-27T20:26:07.037Z,99.97
2022-11-27T20:28:34.209Z,99.88
2022-11-27T20:31:01.928Z,100.00
2022-11-27T20:33:29.932Z,100.00
2022-11-27T20:35:56.965Z,100.00
2022-11-27T20:38:24.558Z,99.78
2022-11-27T20:40:51.267Z,100.00
2022-11-27T20:43:19.107Z,99.82
2022-11-27T20:45:46.462Z,99.86
2022-11-27T20:48:13.021Z,99.93
2022-11-27T20:50:39.939Z,99.76
2022-11-27T20:53:06.905Z,99.90
2022-11-27T20:55:34.283Z,99.44
2022-11-27T20:58:00.767Z,99.42
2022-11-27T21:00:27.550Z,99.97
2022-11-27T21:02:54.164Z,99.41
2022-11-27T21:05:20.737Z,100.00
2022-11-27T21:07:47.267Z,99.43
2022-11-27T21:10:16.572Z,99.97
2022-11-27T21:12:43.460Z,99.82
2022-11-27T21:15:10.410Z,99.95
2022-11-27T21:17:36.980Z,99.14
2022-11-27T21:20:04.372Z,99.67
2022-11-27T21:22:31.510Z,98.84
2022-11-27T21:24:59.326Z,99.21
2022-11-27T21:27:27.601Z,98.63
2022-11-27T21:29:53.975Z,98.65
2022-11-27T21:32:22.595Z,99.20
2022-11-27T21:34:49.223Z,98.80
2022-11-27T21:37:15.647Z,98.82
2022-11-27T21:39:44.064Z,99.10
2022-11-27T21:42:10.999Z,99.74
2022-11-27T21:44:41.252Z,99.31
2022-11-27T21:47:11.940Z,98.73
2022-11-27T21:49:39.900Z,98.31
2022-11-27T21:52:08.470Z,98.89
2022-11-27T21:54:35.911Z,99.20
2022-11-27T21:57:02.456Z,99.46
2022-11-27T21:59:28.925Z,99.17
2022-11-27T22:01:57.195Z,99.00
2022-11-27T22:04:25.215Z,99.54
2022-11-27T22:06:51.645Z,99.20
2022-11-27T22:09:18.464Z,99.37
2022-11-27T22:11:46.421Z,100.00
2022-11-27T22:14:14.888Z,100.00
2022-11-27T22:16:45.761Z,100.00
2022-11-27T22:19:14.422Z,100.00
2022-11-27T22:21:41.231Z,100.00
2022-11-27T22:24:12.155Z,100.00
2022-11-27T22:26:43.276Z,100.00
2022-11-27T22:29:09.711Z,100.00
2022-11-27T22:31:36.605Z,100.00
2022-11-27T22:34:03.780Z,100.00
2022-11-27T22:36:34.752Z,100.00
2022-11-27T22:39:05.258Z,100.00
2022-11-27T22:41:36.073Z,99.87
2022-11-27T22:44:13.916Z,100.00
2022-11-27T22:46:42.175Z,99.54
2022-11-27T22:49:11.704Z,99.93
2022-11-27T22:51:38.919Z,100.00
2022-11-27T22:54:07.220Z,99.68
2022-11-27T22:56:33.788Z,99.47
2022-11-27T22:59:30.509Z,99.25
2022-11-27T23:01:48.546Z,99.33
2022-11-27T23:04:15.984Z,99.49
2022-11-27T23:06:44.419Z,99.68
2022-11-27T23:09:11.136Z,100.00
2022-11-27T23:11:37.604Z,99.53
2022-11-27T23:14:04.009Z,99.81
2022-11-27T23:16:30.451Z,99.70
2022-11-27T23:18:57.326Z,100.00
2022-11-27T23:21:24.489Z,99.40
2022-11-27T23:23:51.606Z,99.62
2022-11-27T23:26:20.520Z,99.34
2022-11-27T23:28:49.155Z,99.46
2022-11-27T23:31:31.988Z,99.95
2022-11-27T23:34:01.256Z,99.58
2022-11-27T23:36:28.147Z,99.42
2022-11-27T23:38:54.647Z,99.41
2022-11-27T23:41:23.619Z,99.89
2022-11-27T23:43:51.411Z,100.00
2022-11-27T23:46:19.451Z,99.87
2022-11-27T23:48:46.029Z,100.00
2022-11-27T23:51:18.628Z,100.00
2022-11-27T23:53:46.167Z,99.96
2022-11-27T23:56:15.776Z,100.00
2022-11-27T23:58:47.033Z,99.96
